createdAt,value
2022-11-24T00:00:00.345Z,-0.60
2022-11-24T00:03:04.920Z,-0.70
2022-11-24T00:06:11.074Z,-0.70
2022-11-24T00:09:14.634Z,-0.70
2022-11-24T00:12:17.924Z,-0.60
2022-11-24T00:15:22.803Z,0.10
2022-11-24T00:18:26.081Z,-0.10
2022-11-24T00:21:30.670Z,-0.70
2022-11-24T00:24:34.322Z,-0.20
2022-11-24T00:27:37.758Z,-0.70
2022-11-24T00:30:42.577Z,-0.80
2022-11-24T00:33:46.208Z,-0.70
2022-11-24T00:36:49.718Z,-0.50
2022-11-24T00:39:53.108Z,-0.80
2022-11-24T00:42:56.467Z,-0.80
2022-11-24T00:46:01.316Z,-0.80
2022-11-24T00:49:04.840Z,-0.30
2022-11-24T00:52:08.153Z,0.20
2022-11-24T00:55:11.548Z,0.00
2022-11-24T00:58:14.862Z,-0.20
2022-11-24T01:01:21.807Z,-0.20
2022-11-24T01:04:25.301Z,0.10
2022-11-24T01:07:28.631Z,-0.80
2022-11-24T01:10:32.390Z,-0.80
2022-11-24T01:13:36.372Z,-0.90
2022-11-24T01:16:41.085Z,-0.80
2022-11-24T01:19:47.171Z,-0.90
2022-11-24T01:22:50.808Z,-0.10
2022-11-24T01:25:54.082Z,-0.90
2022-11-24T01:28:58.896Z,0.50
2022-11-24T01:32:03.582Z,-0.90
2022-11-24T01:35:08.765Z,-0.30
2022-11-24T01:38:12.111Z,-0.80
2022-11-24T01:41:17.192Z,0.50
2022-11-24T01:44:25.407Z,0.60
2022-11-24T01:47:36.428Z,0.00
2022-11-24T01:50:41.749Z,-0.40
2022-11-24T01:53:49.473Z,-1.00
2022-11-24T01:56:58.127Z,-0.20
2022-11-24T02:00:04.728Z,-1.00
2022-11-24T02:03:25.012Z,0.40
2022-11-24T02:06:31.863Z,0.20
2022-11-24T02:09:41.888Z,-1.10
2022-11-24T02:12:48.642Z,-0.10
2022-11-24T02:15:54.547Z,0.50
2022-11-24T02:18:59.376Z,-0.40
2022-11-24T02:22:04.727Z,0.30
2022-11-24T02:25:14.807Z,-0.90
2022-11-24T02:28:22.167Z,-1.00
2022-11-24T02:31:25.568Z,0.30
2022-11-24T02:34:28.945Z,0.20
2022-11-24T02:37:32.288Z,0.50
2022-11-24T02:40:35.733Z,-0.10
2022-11-24T02:43:43.607Z,-1.00
2022-11-24T02:46:46.883Z,-0.90
2022-11-24T02:49:50.122Z,-0.30
2022-11-24T02:52:53.525Z,-0.50
2022-11-24T02:55:57.007Z,-0.40
2022-11-24T02:59:01.738Z,-1.10
2022-11-24T03:02:05.836Z,-0.90
2022-11-24T03:05:09.914Z,-1.00
2022-11-24T03:08:13.361Z,-1.10
2022-11-24T03:11:16.676Z,-0.10
2022-11-24T03:14:21.288Z,-0.10
2022-11-24T03:17:24.590Z,-0.30
2022-11-24T03:20:27.887Z,-1.00
2022-11-24T03:23:31.174Z,0.00
2022-11-24T03:26:35.674Z,-0.90
2022-11-24T03:29:40.351Z,-1.10
2022-11-24T03:32:43.632Z,-0.80
2022-11-24T03:35:46.925Z,-0.10
2022-11-24T03:38:50.243Z,-1.10
2022-11-24T03:41:53.721Z,-0.40
2022-11-24T03:45:01.649Z,-0.80
2022-11-24T03:48:15.194Z,-0.30
2022-11-24T03:51:18.528Z,-0.30
2022-11-24T03:54:22.078Z,0.30
2022-11-24T03:57:25.342Z,-0.10
2022-11-24T04:00:30.697Z,-1.10
2022-11-24T04:03:37.102Z,-1.00
2022-11-24T04:06:40.563Z,0.50
2022-11-24T04:09:43.960Z,-1.10
2022-11-24T04:12:47.218Z,-0.50
2022-11-24T04:15:52.458Z,-0.20
2022-11-24T04:18:55.772Z,-1.10
2022-11-24T04:21:59.047Z,0.50
2022-11-24T04:25:02.415Z,-1.10
2022-11-24T04:28:05.994Z,-1.20
2022-11-24T04:31:10.743Z,-1.10
2022-11-24T04:34:14.433Z,-0.30
2022-11-24T04:37:17.768Z,-1.20
2022-11-24T04:40:21.642Z,-1.00
2022-11-24T04:43:24.907Z,-1.10
2022-11-24T04:46:29.623Z,-0.10
2022-11-24T04:49:32.914Z,-1.20
2022-11-24T04:52:36.250Z,-1.10
2022-11-24T04:55:40.137Z,-0.70
2022-11-24T04:58:43.683Z,-0.30
2022-11-24T05:01:48.814Z,0.10
2022-11-24T05:04:52.293Z,-1.20
2022-11-24T05:07:55.777Z,-1.10
2022-11-24T05:11:01.775Z,-0.10
2022-11-24T05:14:04.957Z,-0.20
2022-11-24T05:17:09.575Z,-1.10
2022-11-24T05:20:13.061Z,-0.40
2022-11-24T05:23:16.585Z,-1.10
2022-11-24T05:26:19.879Z,-0.40
2022-11-24T05:29:23.125Z,-0.10
2022-11-24T05:32:27.845Z,-0.30
2022-11-24T05:35:31.232Z,-1.20
2022-11-24T05:38:35.265Z,-0.20
2022-11-24T05:41:38.649Z,-1.20
2022-11-24T05:44:41.862Z,-1.10
2022-11-24T05:47:47.299Z,-0.60
2022-11-24T05:51:03.183Z,-0.40
2022-11-24T05:54:10.142Z,-1.20
2022-11-24T05:57:14.570Z,-0.30
2022-11-24T06:00:20.261Z,-1.20
2022-11-24T06:03:26.166Z,-1.20
2022-11-24T06:06:29.766Z,-1.20
2022-11-24T06:09:33.013Z,-1.10
2022-11-24T06:12:37.655Z,-1.10
2022-11-24T06:15:41.464Z,-0.30
2022-11-24T06:18:46.219Z,-1.00
2022-11-24T06:21:49.551Z,-0.70
2022-11-24T06:24:52.792Z,-1.20
2022-11-24T06:27:56.321Z,-0.50
2022-11-24T06:31:03.027Z,-0.50
2022-11-24T06:34:10.879Z,-0.30
2022-11-24T06:37:14.040Z,-0.20
2022-11-24T06:40:18.155Z,-1.10
2022-11-24T06:43:23.240Z,-1.10
2022-11-24T06:46:26.723Z,-0.10
2022-11-24T06:49:31.294Z,-0.90
2022-11-24T06:52:34.890Z,-1.10
2022-11-24T06:55:38.260Z,-0.20
2022-11-24T06:58:44.563Z,-1.20
2022-11-24T07:01:48.077Z,-1.10
2022-11-24T07:04:52.759Z,-0.90
2022-11-24T07:07:56.010Z,-0.90
2022-11-24T07:11:05.704Z,-0.90
2022-11-24T07:14:09.193Z,-0.80
2022-11-24T07:17:12.576Z,0.00
2022-11-24T07:20:17.909Z,-0.90
2022-11-24T07:23:21.164Z,-0.90
2022-11-24T07:26:25.174Z,-0.70
2022-11-24T07:29:28.404Z,-0.80
2022-11-24T07:32:31.829Z,-0.60
2022-11-24T07:35:36.444Z,-0.60
2022-11-24T07:38:39.709Z,-0.10
2022-11-24T07:41:43.047Z,-0.40
2022-11-24T07:44:46.362Z,0.10
2022-11-24T07:47:49.637Z,0.00
2022-11-24T07:50:56.245Z,-0.30
2022-11-24T07:53:59.759Z,0.00
2022-11-24T07:57:03.083Z,-0.10
2022-11-24T08:00:07.579Z,0.70
2022-11-24T08:03:10.962Z,0.00
2022-11-24T08:06:24.446Z,0.20
2022-11-24T08:09:30.892Z,0.20
2022-11-24T08:12:34.405Z,0.30
2022-11-24T08:15:37.932Z,0.20
2022-11-24T08:18:41.645Z,0.40
2022-11-24T08:21:46.516Z,-0.40
2022-11-24T08:24:51.458Z,-0.10
2022-11-24T08:27:54.719Z,0.50
2022-11-24T08:31:03.795Z,0.00
2022-11-24T08:34:07.724Z,0.20
2022-11-24T08:37:12.645Z,0.40
2022-11-24T08:40:16.129Z,0.60
2022-11-24T08:43:19.516Z,0.70
2022-11-24T08:46:23.869Z,0.70
2022-11-24T08:49:27.372Z,0.80
2022-11-24T08:52:32.217Z,0.80
2022-11-24T08:55:35.380Z,1.00
2022-11-24T08:58:39.576Z,1.20
2022-11-24T09:01:43.062Z,1.30
2022-11-24T09:04:46.309Z,1.30
2022-11-24T09:07:51.273Z,0.90
2022-11-24T09:10:54.760Z,0.60
2022-11-24T09:13:58.147Z,0.60
2022-11-24T09:17:01.445Z,0.30
2022-11-24T09:20:05.728Z,1.10
2022-11-24T09:23:10.401Z,0.50
2022-11-24T09:26:15.571Z,0.70
2022-11-24T09:29:18.996Z,0.80
2022-11-24T09:32:22.205Z,1.10
2022-11-24T09:35:25.891Z,0.90
2022-11-24T09:38:30.792Z,0.80
2022-11-24T09:41:44.999Z,0.70
2022-11-24T09:45:04.210Z,0.90
2022-11-24T09:48:13.585Z,1.00
2022-11-24T09:51:17.579Z,1.00
2022-11-24T09:54:26.529Z,0.80
2022-11-24T09:57:37.556Z,0.90
2022-11-24T10:00:42.309Z,1.20
2022-11-24T10:03:48.614Z,1.10
2022-11-24T10:06:58.844Z,1.20
2022-11-24T10:10:10.930Z,1.20
2022-11-24T10:13:33.322Z,1.40
2022-11-24T10:16:51.357Z,1.40
2022-11-24T10:20:03.935Z,1.20
2022-11-24T10:23:19.893Z,1.20
2022-11-24T10:26:36.036Z,1.20
2022-11-24T10:29:42.187Z,0.80
2022-11-24T10:32:48.723Z,0.70
2022-11-24T10:35:57.002Z,0.90
2022-11-24T10:39:06.823Z,0.40
2022-11-24T10:42:19.232Z,0.40
2022-11-24T10:45:23.479Z,0.60
2022-11-24T10:48:30.640Z,0.80
2022-11-24T10:51:54.376Z,0.70
2022-11-24T10:54:59.543Z,0.80
2022-11-24T10:58:21.153Z,1.20
2022-11-24T11:01:35.970Z,1.00
2022-11-24T11:04:39.281Z,0.90
2022-11-24T11:07:42.649Z,1.00
2022-11-24T11:10:47.528Z,0.80
2022-11-24T11:14:01.573Z,1.00
2022-11-24T11:17:34.135Z,0.80
2022-11-24T11:20:37.510Z,0.90
2022-11-24T11:23:41.727Z,0.80
2022-11-24T11:26:45.209Z,0.80
2022-11-24T11:36:48.710Z,0.90
2022-11-24T11:39:53.291Z,1.10
2022-11-24T11:43:03.284Z,1.00
2022-11-24T11:46:12.696Z,1.10
2022-11-24T11:49:16.077Z,0.90
2022-11-24T11:53:00.385Z,0.90
2022-11-24T11:56:21.994Z,0.80
2022-11-24T11:59:49.464Z,0.70
2022-11-24T12:03:17.625Z,0.80
2022-11-24T12:06:35.635Z,0.80
2022-11-24T12:09:50.471Z,0.90
2022-11-24T12:13:08.395Z,0.80
2022-11-24T12:16:27.928Z,0.80
2022-11-24T12:20:03.419Z,0.80
2022-11-24T12:23:19.785Z,0.70
2022-11-24T12:26:29.609Z,0.70
2022-11-24T12:29:51.456Z,0.70
2022-11-24T12:33:12.771Z,0.80
2022-11-24T12:36:41.127Z,0.70
2022-11-24T12:39:52.425Z,1.20
2022-11-24T12:43:05.370Z,0.60
2022-11-24T12:46:17.871Z,0.70
2022-11-24T12:49:27.983Z,0.60
2022-11-24T12:52:36.626Z,0.80
2022-11-24T12:55:44.597Z,0.70
2022-11-24T12:58:55.367Z,0.70
2022-11-24T13:02:06.657Z,0.60
2022-11-24T13:05:21.817Z,0.50
2022-11-24T13:08:27.686Z,0.40
2022-11-24T13:11:42.468Z,0.40
2022-11-24T13:14:49.281Z,0.40
2022-11-24T13:18:10.236Z,0.70
2022-11-24T13:21:36.207Z,0.30
2022-11-24T13:24:42.009Z,0.20
2022-11-24T13:27:48.204Z,0.20
2022-11-24T13:30:56.025Z,0.10
2022-11-24T13:33:59.557Z,0.10
2022-11-24T13:37:31.446Z,0.10
2022-11-24T13:41:06.290Z,0.00
2022-11-24T13:44:27.081Z,0.00
2022-11-24T13:47:45.049Z,0.00
2022-11-24T13:51:15.434Z,-0.10
2022-11-24T13:54:18.982Z,-0.10
2022-11-24T13:57:37.569Z,0.60
2022-11-24T14:01:17.232Z,-0.10
2022-11-24T14:04:30.476Z,-0.10
2022-11-24T14:07:35.289Z,-0.20
2022-11-24T14:10:42.634Z,-0.20
2022-11-24T14:13:47.677Z,-0.30
2022-11-24T14:17:15.769Z,-0.30
2022-11-24T14:20:24.814Z,-0.30
2022-11-24T14:23:28.252Z,0.00
2022-11-24T14:26:35.392Z,-0.30
2022-11-24T14:29:54.459Z,-0.20
2022-11-24T14:32:59.191Z,-0.30
2022-11-24T14:36:02.535Z,-0.30
2022-11-24T14:39:06.104Z,-0.40
2022-11-24T14:42:19.996Z,-0.40
2022-11-24T14:45:24.665Z,-0.40
2022-11-24T14:48:29.880Z,-0.50
2022-11-24T14:51:35.799Z,-0.40
2022-11-24T14:54:51.320Z,-0.50
2022-11-24T14:57:54.632Z,-0.40
2022-11-24T15:01:29.448Z,-0.40
2022-11-24T15:08:04.075Z,-0.60
2022-11-24T15:11:08.234Z,-0.60
2022-11-24T15:14:42.252Z,-0.60
2022-11-24T15:17:49.528Z,-0.60
2022-11-24T15:20:52.778Z,-0.70
2022-11-24T15:24:07.898Z,-0.60
2022-11-24T15:27:11.121Z,-0.70
2022-11-24T15:30:14.903Z,-0.10
2022-11-24T15:33:20.567Z,-0.70
2022-11-24T15:36:23.931Z,-0.60
2022-11-24T15:39:27.286Z,-0.10
2022-11-24T15:42:30.581Z,-0.70
2022-11-24T15:45:35.745Z,-0.70
2022-11-24T15:48:40.643Z,-0.70
2022-11-24T15:51:47.027Z,-0.60
2022-11-24T15:54:53.664Z,-0.70
2022-11-24T15:57:56.930Z,-0.70
2022-11-24T16:01:00.492Z,0.40
2022-11-24T16:04:05.441Z,-0.70
2022-11-24T16:07:12.879Z,-0.70
2022-11-24T16:10:24.826Z,-0.70
2022-11-24T16:13:28.190Z,-0.50
2022-11-24T16:16:31.607Z,-0.40
2022-11-24T16:19:41.868Z,-0.80
2022-11-24T16:22:45.959Z,0.00
2022-11-24T16:25:49.167Z,-0.80
2022-11-24T16:28:52.532Z,-0.50
2022-11-24T16:31:55.915Z,-0.80
2022-11-24T16:35:00.719Z,-0.80
2022-11-24T16:38:07.941Z,-0.80
2022-11-24T16:41:11.855Z,-0.80
2022-11-24T16:44:15.232Z,-0.80
2022-11-24T16:47:18.623Z,-0.80
2022-11-24T16:50:23.431Z,-0.80
2022-11-24T16:53:26.853Z,-0.80
2022-11-24T16:56:30.877Z,-0.30
2022-11-24T16:59:34.538Z,-0.90
2022-11-24T17:02:37.890Z,-0.90
2022-11-24T17:05:42.755Z,-0.90
2022-11-24T17:08:47.387Z,-0.90
2022-11-24T17:11:51.238Z,-0.30
2022-11-24T17:15:24.651Z,-0.90
2022-11-24T17:18:26.572Z,-0.90
2022-11-24T17:21:32.190Z,-0.30
2022-11-24T17:24:35.801Z,-0.80
2022-11-24T17:27:39.254Z,-0.90
2022-11-24T17:30:42.836Z,-0.50
2022-11-24T17:33:46.256Z,-0.90
2022-11-24T17:36:51.040Z,0.10
2022-11-24T17:40:20.351Z,-1.00
2022-11-24T17:43:17.606Z,-1.00
2022-11-24T17:46:21.927Z,-0.90
2022-11-24T17:49:26.567Z,-1.00
2022-11-24T17:52:32.534Z,-0.60
2022-11-24T17:55:36.086Z,-1.00
2022-11-24T17:58:42.843Z,-1.00
2022-11-24T18:01:47.060Z,-0.80
2022-11-24T18:04:50.383Z,-1.00
2022-11-24T18:07:55.109Z,-1.00
2022-11-24T18:11:04.561Z,-1.10
2022-11-24T18:14:07.952Z,-0.80
2022-11-24T18:17:11.237Z,-0.40
2022-11-24T18:20:14.768Z,-1.10
2022-11-24T18:23:19.385Z,-1.00
2022-11-24T18:26:23.095Z,-0.90
2022-11-24T18:29:26.364Z,-1.00
2022-11-24T18:32:29.738Z,-0.30
2022-11-24T18:35:33.005Z,-1.00
2022-11-24T18:38:38.135Z,-1.10
2022-11-24T18:41:41.379Z,-0.80
2022-11-24T18:44:46.035Z,-0.50
2022-11-24T18:47:50.863Z,-1.00
2022-11-24T18:50:54.891Z,-1.10
2022-11-24T18:53:59.971Z,-1.10
2022-11-24T18:57:03.778Z,-0.90
2022-11-24T19:00:08.960Z,-0.50
2022-11-24T19:03:12.222Z,-1.10
2022-11-24T19:06:17.813Z,-0.60
2022-11-24T19:09:22.964Z,-1.00
2022-11-24T19:12:26.272Z,-0.60
2022-11-24T19:15:34.001Z,-1.10
2022-11-24T19:18:37.293Z,-1.10
2022-11-24T19:21:41.433Z,-1.10
2022-11-24T19:24:46.716Z,-0.80
2022-11-24T19:27:50.164Z,-0.80
2022-11-24T19:30:53.580Z,-1.10
2022-11-24T19:33:58.691Z,-0.60
2022-11-24T19:37:02.103Z,-0.20
2022-11-24T19:40:08.412Z,-0.20
2022-11-24T19:43:11.883Z,-1.10
2022-11-24T19:46:17.580Z,-1.10
2022-11-24T19:49:20.828Z,-1.10
2022-11-24T19:52:24.386Z,-1.10
2022-11-24T19:55:29.219Z,-1.20
2022-11-24T19:58:33.332Z,-1.10
2022-11-24T20:01:40.090Z,-1.10
2022-11-24T20:04:43.664Z,-1.10
2022-11-24T20:07:47.152Z,-1.10
2022-11-24T20:10:51.998Z,-1.00
2022-11-24T20:13:56.066Z,-1.10
2022-11-24T20:16:59.416Z,-1.10
2022-11-24T20:20:02.850Z,-1.10
2022-11-24T20:23:08.399Z,-1.10
2022-11-24T20:26:15.048Z,-1.10
2022-11-24T20:29:18.642Z,-1.10
2022-11-24T20:32:22.030Z,-1.10
2022-11-24T20:35:25.517Z,-1.10
2022-11-24T20:38:31.632Z,-1.10
2022-11-24T20:41:39.022Z,-1.10
2022-11-24T20:44:42.468Z,-1.10
2022-11-24T20:47:45.756Z,-1.20
2022-11-24T20:50:51.499Z,-1.20
2022-11-24T20:53:57.141Z,-1.10
2022-11-24T20:57:01.915Z,-1.10
2022-11-24T21:00:09.707Z,-1.10
2022-11-24T21:03:17.988Z,-1.10
2022-11-24T21:06:22.526Z,-1.10
2022-11-24T21:09:27.530Z,-1.10
2022-11-24T21:12:32.852Z,-1.20
2022-11-24T21:15:36.780Z,-1.20
2022-11-24T21:18:40.949Z,-1.20
2022-11-24T21:21:48.060Z,-1.20
2022-11-24T21:24:52.011Z,-1.20
2022-11-24T21:27:57.181Z,-1.20
2022-11-24T21:31:05.756Z,-1.20
2022-11-24T21:34:09.854Z,-1.20
2022-11-24T21:37:13.584Z,-1.20
2022-11-24T21:40:17.615Z,-1.20
2022-11-24T21:43:22.435Z,-1.10
2022-11-24T21:46:40.532Z,-1.10
2022-11-24T21:49:49.609Z,-1.20
2022-11-24T21:52:53.757Z,-1.20
2022-11-24T21:55:58.364Z,-1.20
2022-11-24T21:59:03.043Z,-1.20
2022-11-24T22:02:10.273Z,-1.20
2022-11-24T22:05:16.277Z,-1.30
2022-11-24T22:08:19.519Z,-1.30
2022-11-24T22:11:24.746Z,-1.20
2022-11-24T22:14:29.679Z,-1.10
2022-11-24T22:17:32.886Z,-0.60
2022-11-24T22:20:36.495Z,-1.10
2022-11-24T22:23:39.890Z,-1.20
2022-11-24T22:26:43.238Z,-1.20
2022-11-24T22:29:51.372Z,-0.90
2022-11-24T22:32:57.124Z,-0.60
2022-11-24T22:36:01.131Z,-1.30
2022-11-24T22:39:06.354Z,-0.10
2022-11-24T22:42:09.562Z,-1.30
2022-11-24T22:45:14.202Z,0.10
2022-11-24T22:48:17.374Z,-1.30
2022-11-24T22:51:21.889Z,-1.30
2022-11-24T22:54:25.249Z,-1.30
2022-11-24T22:57:28.475Z,-1.20
2022-11-24T23:00:33.193Z,-0.20
2022-11-24T23:03:37.208Z,-1.20
2022-11-24T23:06:40.628Z,-1.10
2022-11-24T23:09:43.858Z,-1.20
2022-11-24T23:12:47.144Z,-1.20
2022-11-24T23:15:51.692Z,-1.20
2022-11-24T23:18:54.938Z,-0.10
2022-11-24T23:21:58.106Z,-1.40
2022-11-24T23:25:01.475Z,-0.60
2022-11-24T23:28:04.985Z,-1.40
2022-11-24T23:31:11.589Z,-1.30
2022-11-24T23:34:15.178Z,-1.30
2022-11-24T23:37:18.560Z,-1.40
2022-11-24T23:40:21.766Z,-1.30
2022-11-24T23:43:25.047Z,-0.60
2022-11-24T23:46:30.317Z,-1.40
2022-11-24T23:49:33.518Z,-0.60
2022-11-24T23:52:36.924Z,-1.40
2022-11-24T23:55:40.277Z,-0.80
2022-11-24T23:58:44.117Z,-0.30
